Time;durP1;ratioP1;P1;durP2;ratioP2;P2;SDS_P1;SDS_P2;PMS_P1;PMS_P2;Temp;Humidity;BMP_temperature;BMP_pressure;BME280_temperature;BME280_humidity;BME280_pressure;Samples;Min_cycle;Max_cycle;Signal;HPM_P1;HPM_P2
2021/12/05 00:24:07;;;;;;;5.33;3.90;;;;;;;1.77;100.00;94722.59;10547890;28;20335;-58
2021/12/05 00:34:40;;;;;;;5.70;5.20;;;;;;;1.89;100.00;94728.31;10571794;28;20198;-60
2021/12/05 00:39:54;;;;;;;5.17;4.63;;;;;;;1.89;100.00;94726.53;10553411;28;20183;-61
2021/12/05 00:50:53;;;;;;;5.20;4.70;;;;;;;1.84;100.00;94740.88;10537131;28;20179;-60
2021/12/05 00:56:01;;;;;;;5.00;4.50;;;;;;;1.72;100.00;94748.88;10530412;28;20171;-63
2021/12/05 01:01:25;;;;;;;4.50;4.10;;;;;;;1.67;100.00;94778.66;10541422;28;20175;-59
2021/12/05 01:16:46;;;;;;;4.20;3.80;;;;;;;1.77;100.00;94795.69;10543007;28;20210;-61
2021/12/05 01:21:52;;;;;;;4.73;4.03;;;;;;;1.77;100.00;94813.75;10539486;28;20175;-61
2021/12/05 01:37:29;;;;;;;4.00;3.63;;;;;;;1.77;100.00;94843.94;10569555;28;20181;-61
2021/12/05 01:42:51;;;;;;;4.30;3.90;;;;;;;1.74;100.00;94839.84;10568673;28;20166;-62
2021/12/05 01:48:35;;;;;;;3.90;3.50;;;;;;;1.76;100.00;94863.78;10539582;28;20456;-64
2021/12/05 01:59:09;;;;;;;4.40;4.00;;;;;;;1.77;100.00;94886.03;10532502;28;20252;-63
2021/12/05 02:31:05;;;;;;;4.40;4.00;;;;;;;1.80;100.00;94917.69;10526167;28;20413;-62
2021/12/05 02:41:23;;;;;;;5.50;4.40;;;;;;;1.76;100.00;94920.56;10564824;28;20190;-62
2021/12/05 02:46:25;;;;;;;7.00;4.80;;;;;;;1.74;100.00;94912.13;10525963;28;20195;-59
2021/12/05 02:51:28;;;;;;;6.27;4.87;;;;;;;1.68;100.00;94920.47;10567023;28;20385;-62
2021/12/05 02:56:31;;;;;;;6.97;5.30;;;;;;;1.66;100.00;94914.66;10562399;28;20167;-61
2021/12/05 03:01:39;;;;;;;5.77;5.07;;;;;;;1.60;100.00;94918.63;10527223;28;20218;-60
2021/12/05 03:06:49;;;;;;;6.47;5.13;;;;;;;1.66;100.00;94914.66;10536711;28;20205;-61
2021/12/05 03:11:52;;;;;;;6.03;5.33;;;;;;;1.67;100.00;94918.88;10542768;28;20244;-64
2021/12/05 03:16:53;;;;;;;6.17;5.50;;;;;;;1.67;100.00;94929.19;10549994;28;20209;-62
2021/12/05 03:21:54;;;;;;;8.97;6.10;;;;;;;1.61;100.00;94927.19;10567171;28;20166;-62
2021/12/05 03:26:58;;;;;;;9.83;6.50;;;;;;;1.68;100.00;94930.78;10529101;28;20207;-62
2021/12/05 03:31:58;;;;;;;7.63;5.60;;;;;;;1.71;100.00;94933.09;10561265;28;20171;-61
2021/12/05 03:37:02;;;;;;;10.60;6.10;;;;;;;1.68;100.00;94941.13;10544125;28;20177;-60
2021/12/05 03:42:06;;;;;;;10.90;6.60;;;;;;;1.55;100.00;94946.63;10565577;28;20416;-64
2021/12/05 03:47:08;;;;;;;11.43;6.70;;;;;;;1.62;100.00;94941.69;10537496;28;20281;-61
2021/12/05 03:52:15;;;;;;;7.23;5.43;;;;;;;1.57;100.00;94952.47;10565899;28;20166;-62
2021/12/05 03:57:16;;;;;;;7.63;5.20;;;;;;;1.63;100.00;94963.19;10540353;28;20166;-61
2021/12/05 04:02:16;;;;;;;9.00;4.83;;;;;;;1.58;100.00;94972.16;10530833;28;20164;-60
2021/12/05 04:07:17;;;;;;;9.40;4.80;;;;;;;1.57;100.00;94967.13;10528103;28;20329;-61
2021/12/05 04:12:18;;;;;;;8.73;5.77;;;;;;;1.46;100.00;94975.09;10553835;28;20218;-62
2021/12/05 04:17:20;;;;;;;5.80;5.07;;;;;;;1.48;100.00;94980.91;10565081;28;20256;-65
2021/12/05 04:22:20;;;;;;;9.10;6.17;;;;;;;1.30;100.00;94983.41;10562322;28;20173;-63
2021/12/05 04:27:21;;;;;;;10.63;5.87;;;;;;;1.33;100.00;94981.38;10542122;28;20288;-64
2021/12/05 04:32:21;;;;;;;9.93;6.23;;;;;;;1.22;100.00;94997.03;10526222;28;20174;-64
2021/12/05 04:37:23;;;;;;;10.43;5.73;;;;;;;1.25;100.00;94994.16;10548893;28;20174;-62
2021/12/05 04:42:25;;;;;;;7.07;5.40;;;;;;;1.21;100.00;94992.81;10566189;28;20199;-63
2021/12/05 04:47:26;;;;;;;6.20;4.83;;;;;;;1.25;100.00;95000.13;10549912;28;20217;-65
2021/12/05 04:52:28;;;;;;;11.77;5.90;;;;;;;1.23;100.00;95001.25;10524037;28;20202;-66
2021/12/05 04:57:28;;;;;;;11.83;5.57;;;;;;;1.32;100.00;94997.81;10560744;28;20165;-60
2021/12/05 05:02:29;;;;;;;13.23;5.57;;;;;;;1.32;100.00;95002.97;10553022;28;20393;-63
2021/12/05 05:07:30;;;;;;;11.37;5.67;;;;;;;1.27;100.00;95005.16;10538007;28;20198;-61
2021/12/05 05:12:30;;;;;;;13.17;4.70;;;;;;;1.33;100.00;95012.34;10569015;28;20337;-61
2021/12/05 05:17:30;;;;;;;11.30;5.30;;;;;;;1.29;100.00;95025.63;10562020;28;20225;-63
2021/12/05 05:23:09;;;;;;;6.83;4.73;;;;;;;1.33;100.00;95024.41;10562554;28;20663;-62
2021/12/05 05:28:33;;;;;;;8.57;4.73;;;;;;;1.27;100.00;95019.81;10564673;28;20378;-61
2021/12/05 05:54:34;;;;;;;9.73;5.17;;;;;;;1.07;100.00;95063.72;10569560;28;20325;-60
2021/12/05 05:59:48;;;;;;;7.40;4.40;;;;;;;1.19;100.00;95066.94;10567845;28;20178;-61
2021/12/05 06:04:49;;;;;;;10.43;5.30;;;;;;;1.19;100.00;95077.25;10536138;28;20210;-61
2021/12/05 06:09:49;;;;;;;10.30;4.73;;;;;;;1.14;100.00;95092.34;10566153;28;20182;-62
2021/12/05 06:14:50;;;;;;;12.03;4.43;;;;;;;1.15;100.00;95094.78;10568705;28;20214;-60
2021/12/05 06:19:51;;;;;;;10.07;4.63;;;;;;;1.15;100.00;95109.44;10526149;28;20204;-59
2021/12/05 06:24:51;;;;;;;8.23;4.67;;;;;;;1.05;100.00;95106.88;10557528;28;20467;-59
2021/12/05 06:30:01;;;;;;;6.50;4.87;;;;;;;0.98;100.00;95122.09;10562359;28;20186;-63
2021/12/05 06:46:08;;;;;;;13.13;6.17;;;;;;;0.99;100.00;95139.16;10521669;28;20222;-57
2021/12/05 06:51:10;;;;;;;13.43;4.80;;;;;;;0.94;100.00;95128.47;10549106;28;20185;-62
2021/12/05 06:56:10;;;;;;;9.83;4.53;;;;;;;0.97;100.00;95135.94;10565805;28;20235;-61
2021/12/05 07:01:11;;;;;;;11.87;5.20;;;;;;;0.89;100.00;95146.91;10567356;28;20185;-62
2021/12/05 07:06:26;;;;;;;11.23;5.93;;;;;;;0.93;100.00;95154.38;10558627;28;20190;-60
2021/12/05 07:11:30;;;;;;;8.63;4.67;;;;;;;1.00;100.00;95168.38;10554757;28;20185;-59
2021/12/05 07:16:48;;;;;;;5.80;4.10;;;;;;;0.99;100.00;95167.53;10536884;28;20225;-62
2021/12/05 07:21:57;;;;;;;6.27;4.17;;;;;;;1.09;100.00;95175.28;10542643;28;20184;-59
2021/12/05 07:42:41;;;;;;;8.23;3.40;;;;;;;1.08;100.00;95206.38;10566622;28;20166;-61
2021/12/05 07:54:12;;;;;;;8.30;3.53;;;;;;;1.31;100.00;95219.81;10592878;28;20182;-61
2021/12/05 07:59:38;;;;;;;5.43;3.30;;;;;;;1.25;100.00;95226.31;10598634;28;20168;-63
2021/12/05 08:15:20;;;;;;;7.70;3.37;;;;;;;1.52;100.00;95241.13;10581500;28;20240;-63
2021/12/05 08:20:35;;;;;;;3.17;2.60;;;;;;;1.45;100.00;95239.22;10606407;28;20174;-64
2021/12/05 08:25:39;;;;;;;4.37;2.20;;;;;;;1.53;100.00;95245.34;10605434;28;20218;-62
2021/12/05 08:30:39;;;;;;;5.83;2.70;;;;;;;1.48;100.00;95249.25;10602480;28;20383;-64
2021/12/05 08:36:15;;;;;;;4.77;2.60;;;;;;;1.51;100.00;95243.84;10613341;28;20208;-64
2021/12/05 09:24:00;;;;;;;3.47;2.27;;;;;;;1.75;100.00;95295.03;10590239;28;20361;-64
2021/12/05 09:40:08;;;;;;;10.30;3.03;;;;;;;1.90;100.00;95310.91;10617963;27;20169;-62
2021/12/05 10:11:48;;;;;;;19.13;5.60;;;;;;;1.85;100.00;95316.47;10609492;28;20169;-64
2021/12/05 10:17:04;;;;;;;63.57;14.20;;;;;;;2.10;100.00;95316.88;10609740;28;20206;-61
2021/12/05 10:38:15;;;;;;;7.23;2.40;;;;;;;2.06;100.00;95287.91;10521937;28;20171;-61
2021/12/05 10:43:23;;;;;;;5.37;2.07;;;;;;;2.06;100.00;95293.06;10521688;28;20214;-60
2021/12/05 10:48:30;;;;;;;5.53;2.60;;;;;;;1.96;100.00;95292.28;10521411;28;20199;-61
2021/12/05 10:53:49;;;;;;;5.87;2.83;;;;;;;1.87;100.00;95293.94;10520936;28;20187;-61
2021/12/05 10:59:13;;;;;;;7.07;2.30;;;;;;;1.95;100.00;95296.63;10520986;28;20210;-62
2021/12/05 11:04:22;;;;;;;5.83;2.13;;;;;;;2.19;100.00;95297.13;10579571;28;20189;-59
2021/12/05 11:09:29;;;;;;;8.77;2.30;;;;;;;2.24;100.00;95300.13;10607516;28;20192;-60
2021/12/05 11:14:36;;;;;;;6.33;2.20;;;;;;;2.44;100.00;95301.69;10608290;28;20221;-58
2021/12/05 11:19:43;;;;;;;10.63;2.17;;;;;;;2.32;100.00;95313.16;10608159;28;20173;-61
2021/12/05 11:24:45;;;;;;;8.00;2.60;;;;;;;3.08;100.00;95304.41;10608226;28;20194;-62
2021/12/05 11:29:59;;;;;;;6.47;2.07;;;;;;;3.53;100.00;95306.13;10607566;28;20182;-62
2021/12/05 11:35:11;;;;;;;4.97;2.40;;;;;;;3.73;100.00;95309.38;10608077;28;20166;-61
2021/12/05 11:40:12;;;;;;;8.97;3.13;;;;;;;3.23;100.00;95322.81;10607013;28;20158;-63
2021/12/05 11:45:12;;;;;;;7.30;2.27;;;;;;;3.08;100.00;95332.88;10607932;28;20201;-62
2021/12/05 11:50:13;;;;;;;7.23;2.67;;;;;;;2.96;100.00;95339.19;10606908;28;20254;-64
2021/12/05 11:55:25;;;;;;;9.77;2.53;;;;;;;3.05;100.00;95335.75;10606939;28;20308;-61
2021/12/05 12:00:27;;;;;;;6.97;2.43;;;;;;;3.20;100.00;95334.28;10607578;28;20170;-64
2021/12/05 12:05:31;;;;;;;7.53;2.57;;;;;;;2.63;100.00;95343.94;10609205;28;20201;-62
2021/12/05 12:10:35;;;;;;;10.40;3.33;;;;;;;2.36;100.00;95350.69;10615024;28;20185;-62
2021/12/05 12:15:36;;;;;;;9.03;3.20;;;;;;;2.51;100.00;95353.63;10614870;28;20225;-64
2021/12/05 12:20:39;;;;;;;9.00;2.77;;;;;;;3.01;100.00;95334.38;10615155;28;20280;-61
2021/12/05 12:25:39;;;;;;;9.03;2.90;;;;;;;2.98;100.00;95321.75;10614108;28;20202;-63
2021/12/05 12:30:44;;;;;;;7.87;2.30;;;;;;;2.58;100.00;95328.03;10614601;28;20166;-60
2021/12/05 12:35:46;;;;;;;33.10;15.80;;;;;;;2.96;100.00;95334.00;10613026;28;20167;-62
2021/12/05 12:40:57;;;;;;;9.63;2.43;;;;;;;2.83;100.00;95334.31;10613975;28;20181;-64
2021/12/05 12:45:57;;;;;;;6.37;3.70;;;;;;;2.57;100.00;95347.88;10613780;28;20193;-62
2021/12/05 12:50:58;;;;;;;10.13;2.50;;;;;;;2.31;100.00;95352.84;10612542;28;20251;-60
2021/12/05 12:56:21;;;;;;;6.20;2.30;;;;;;;2.50;100.00;95360.56;10612998;28;20193;-60
2021/12/05 13:12:31;;;;;;;8.77;2.80;;;;;;;3.51;100.00;95338.34;10584603;28;20171;-63
2021/12/05 13:17:45;;;;;;;8.10;3.10;;;;;;;3.58;100.00;95344.53;10597943;27;20219;-61
2021/12/05 13:23:00;;;;;;;11.50;2.93;;;;;;;3.46;100.00;95358.66;10632952;27;20166;-61
2021/12/05 13:28:26;;;;;;;11.23;3.60;;;;;;;3.02;100.00;95373.06;10604439;28;20202;-59
2021/12/05 13:33:31;;;;;;;8.87;4.73;;;;;;;2.50;100.00;95396.75;10602087;28;20176;-61
2021/12/05 13:38:39;;;;;;;10.10;3.77;;;;;;;2.16;100.00;95398.16;10601263;28;20296;-58
2021/12/05 13:43:41;;;;;;;7.30;2.80;;;;;;;2.11;100.00;95399.41;10605432;28;20484;-58
2021/12/05 13:48:41;;;;;;;12.43;3.23;;;;;;;2.41;100.00;95399.38;10561834;28;20195;-59
2021/12/05 13:53:51;;;;;;;13.97;3.87;;;;;;;2.64;100.00;95407.63;10604262;28;20181;-59
2021/12/05 13:58:56;;;;;;;14.50;4.27;;;;;;;2.23;100.00;95431.06;10579399;28;20208;-57
2021/12/05 14:04:03;;;;;;;10.20;3.77;;;;;;;2.03;100.00;95447.53;10603859;28;20180;-61
2021/12/05 14:09:08;;;;;;;5.97;3.07;;;;;;;1.95;100.00;95443.84;10600457;28;20488;-63
2021/12/05 14:14:09;;;;;;;9.40;4.03;;;;;;;2.07;100.00;95444.53;10597147;28;20242;-62
2021/12/05 14:19:12;;;;;;;7.57;3.70;;;;;;;1.82;100.00;95437.31;10561245;28;20178;-62
2021/12/05 14:24:14;;;;;;;8.10;2.40;;;;;;;1.92;100.00;95440.72;10579194;28;20173;-63
2021/12/05 14:29:18;;;;;;;5.37;2.60;;;;;;;1.95;100.00;95446.41;10581101;28;20217;-60
2021/12/05 14:34:18;;;;;;;5.27;3.10;;;;;;;1.90;100.00;95458.94;10607471;28;20176;-64
2021/12/05 14:39:23;;;;;;;7.67;2.70;;;;;;;1.82;100.00;95452.78;10592879;28;20165;-63
2021/12/05 14:44:24;;;;;;;7.70;2.57;;;;;;;1.68;100.00;95461.72;10588287;28;20174;-60
2021/12/05 14:49:26;;;;;;;7.00;2.57;;;;;;;1.93;100.00;95470.72;10577697;28;20200;-63
2021/12/05 14:54:32;;;;;;;11.53;2.97;;;;;;;1.71;100.00;95482.13;10606770;27;20177;-61
2021/12/05 14:59:33;;;;;;;9.20;2.37;;;;;;;1.45;100.00;95477.41;10596389;28;20191;-59
2021/12/05 15:04:37;;;;;;;6.60;2.47;;;;;;;1.37;100.00;95485.81;10600992;28;20284;-61
2021/12/05 15:09:43;;;;;;;8.00;2.50;;;;;;;0.84;100.00;95491.13;10601661;28;20165;-60
2021/12/05 15:14:46;;;;;;;6.13;2.40;;;;;;;0.73;100.00;95486.03;10601976;28;20216;-58
2021/12/05 15:19:51;;;;;;;9.97;2.80;;;;;;;0.34;100.00;95489.97;10603611;28;20294;-61
2021/12/05 15:24:54;;;;;;;11.47;3.27;;;;;;;0.27;100.00;95482.88;10608505;28;20201;-61
2021/12/05 15:29:58;;;;;;;9.77;3.63;;;;;;;0.47;100.00;95486.41;10606355;28;20216;-62
2021/12/05 15:35:08;;;;;;;5.80;3.30;;;;;;;0.52;100.00;95487.69;10608005;28;20276;-62
2021/12/05 15:40:09;;;;;;;8.87;3.10;;;;;;;0.29;100.00;95476.66;10609676;28;20178;-60
2021/12/05 15:45:12;;;;;;;8.80;4.03;;;;;;;0.44;100.00;95484.88;10616447;28;20207;-60
2021/12/05 15:50:15;;;;;;;10.07;3.30;;;;;;;0.42;100.00;95485.97;10616407;28;20178;-61
2021/12/05 15:55:23;;;;;;;12.43;4.00;;;;;;;0.55;100.00;95489.16;10617073;28;20381;-60
2021/12/05 16:00:27;;;;;;;11.17;4.20;;;;;;;0.53;100.00;95496.22;10586828;28;20236;-63
2021/12/05 16:05:28;;;;;;;8.93;4.13;;;;;;;0.67;100.00;95505.41;10602804;28;20305;-60
2021/12/05 16:10:30;;;;;;;130.20;55.77;;;;;;;0.57;100.00;95513.06;10599000;28;20213;-60
2021/12/05 16:15:30;;;;;;;61.07;29.30;;;;;;;0.62;100.00;95518.66;10573130;28;20361;-58
2021/12/05 16:20:40;;;;;;;45.83;22.40;;;;;;;0.58;100.00;95517.25;10573202;28;20243;-59
2021/12/05 16:25:57;;;;;;;26.97;15.00;;;;;;;0.48;100.00;95519.78;10573251;28;20208;-59
2021/12/05 16:31:38;;;;;;;27.50;14.20;;;;;;;0.50;100.00;95535.13;10573115;28;20235;-62
2021/12/05 16:36:47;;;;;;;28.27;12.83;;;;;;;0.40;100.00;95529.06;10404150;28;20453;-60
2021/12/05 16:41:54;;;;;;;16.63;9.30;;;;;;;0.46;100.00;95538.88;10539208;28;20175;-58
2021/12/05 16:47:11;;;;;;;16.10;8.60;;;;;;;0.46;100.00;95534.56;10572267;28;20489;-56
2021/12/05 16:52:23;;;;;;;12.60;7.43;;;;;;;0.46;100.00;95533.72;10563709;28;20224;-58
2021/12/05 16:57:32;;;;;;;16.13;9.67;;;;;;;0.54;100.00;95533.94;10571690;28;20330;-57
2021/12/05 17:02:35;;;;;;;17.47;8.97;;;;;;;0.53;100.00;95532.28;10572102;28;20181;-59
2021/12/05 17:07:48;;;;;;;13.97;9.47;;;;;;;0.39;100.00;95542.91;10570619;28;20217;-61
2021/12/05 17:12:52;;;;;;;12.67;7.17;;;;;;;0.49;100.00;95547.19;10571447;28;20411;-61
2021/12/05 17:18:01;;;;;;;12.37;5.93;;;;;;;0.39;100.00;95543.72;10571035;28;20250;-62
2021/12/05 17:23:04;;;;;;;12.77;6.40;;;;;;;0.11;100.00;95545.09;10568798;28;20201;-61
2021/12/05 17:28:12;;;;;;;12.20;6.50;;;;;;;-0.06;100.00;95557.53;10563952;28;20202;-63
2021/12/05 17:33:25;;;;;;;14.33;7.50;;;;;;;-0.12;100.00;95562.31;10564896;28;20171;-63
2021/12/05 17:38:34;;;;;;;17.93;9.30;;;;;;;-0.21;100.00;95571.59;10563927;28;20536;-61
2021/12/05 17:43:35;;;;;;;28.57;16.97;;;;;;;-0.28;100.00;95568.66;10564046;28;20278;-61
2021/12/05 17:48:36;;;;;;;23.17;14.83;;;;;;;-0.13;100.00;95563.28;10564009;28;20226;-63
2021/12/05 17:53:38;;;;;;;17.40;8.70;;;;;;;-0.22;100.00;95580.22;10563448;28;20196;-63
2021/12/05 17:58:54;;;;;;;14.33;7.37;;;;;;;-0.17;100.00;95582.44;10563426;28;20384;-62
2021/12/05 18:03:56;;;;;;;23.20;9.53;;;;;;;-0.26;100.00;95586.53;10563086;28;20181;-60
2021/12/05 18:08:56;;;;;;;16.30;7.47;;;;;;;-0.08;100.00;95581.75;10562832;28;20206;-61
2021/12/05 18:13:58;;;;;;;18.97;8.53;;;;;;;-0.07;100.00;95594.50;10562620;28;20211;-62
2021/12/05 18:19:04;;;;;;;16.80;9.17;;;;;;;0.03;100.00;95607.50;10562391;28;20169;-61
2021/12/05 18:24:11;;;;;;;19.90;9.47;;;;;;;0.13;100.00;95605.00;10561581;28;20294;-62
2021/12/05 18:29:15;;;;;;;15.50;8.63;;;;;;;0.08;100.00;95612.28;10562563;28;20225;-61
2021/12/05 18:34:20;;;;;;;16.27;7.40;;;;;;;0.03;100.00;95616.94;10561785;28;20315;-62
2021/12/05 18:39:33;;;;;;;16.60;7.83;;;;;;;-0.02;100.00;95632.75;10562244;28;20177;-62
2021/12/05 18:44:39;;;;;;;13.30;7.13;;;;;;;0.07;100.00;95639.75;10561729;28;20169;-60
2021/12/05 18:49:40;;;;;;;13.93;6.63;;;;;;;0.10;100.00;95649.84;10561379;28;20177;-63
2021/12/05 18:54:42;;;;;;;13.87;6.80;;;;;;;0.25;100.00;95647.03;10560733;28;20280;-61
2021/12/05 18:59:49;;;;;;;16.03;6.80;;;;;;;0.27;100.00;95650.28;10560973;28;20168;-61
2021/12/05 19:04:53;;;;;;;14.47;7.83;;;;;;;0.22;100.00;95660.94;10561322;28;20407;-61
2021/12/05 19:15:09;;;;;;;17.37;7.80;;;;;;;0.24;100.00;95664.22;10600985;28;20216;-60
2021/12/05 19:20:22;;;;;;;15.30;7.40;;;;;;;0.21;100.00;95669.59;10602298;28;20231;-63
2021/12/05 19:25:27;;;;;;;11.60;6.60;;;;;;;0.35;100.00;95666.78;10600675;28;20198;-62
2021/12/05 19:30:34;;;;;;;12.70;6.87;;;;;;;0.44;100.00;95672.16;10599904;28;20170;-63
2021/12/05 19:35:36;;;;;;;16.07;7.30;;;;;;;0.42;100.00;95681.78;10584813;28;20166;-63
2021/12/05 19:40:38;;;;;;;17.73;6.90;;;;;;;0.40;100.00;95696.50;10591675;28;20304;-61
2021/12/05 19:45:39;;;;;;;19.87;6.90;;;;;;;0.44;100.00;95705.66;10602072;28;20240;-62
2021/12/05 19:50:41;;;;;;;23.43;9.83;;;;;;;0.37;100.00;95709.63;10601223;28;20189;-62
2021/12/05 19:55:42;;;;;;;13.27;9.47;;;;;;;0.31;100.00;95700.63;10601704;28;20171;-62
2021/12/05 20:00:46;;;;;;;14.43;7.70;;;;;;;0.50;100.00;95700.81;10601417;28;20173;-63
2021/12/05 20:05:46;;;;;;;12.63;8.10;;;;;;;0.57;100.00;95701.19;10600238;28;20247;-63
2021/12/05 20:10:47;;;;;;;17.57;7.80;;;;;;;0.47;100.00;95697.69;10599975;28;20182;-63
2021/12/05 20:15:48;;;;;;;11.57;6.77;;;;;;;0.53;100.00;95707.50;10601041;28;20457;-64
2021/12/05 20:20:51;;;;;;;11.83;7.40;;;;;;;0.67;100.00;95707.28;10600537;28;20169;-64
2021/12/05 20:25:51;;;;;;;13.60;8.13;;;;;;;0.27;100.00;95710.34;10600747;28;20203;-64
2021/12/05 20:30:52;;;;;;;12.93;7.63;;;;;;;0.60;100.00;95698.38;10608689;28;20518;-61
2021/12/05 20:35:52;;;;;;;13.53;6.83;;;;;;;0.53;100.00;95717.81;10608146;28;20174;-64
2021/12/05 20:40:52;;;;;;;16.20;8.90;;;;;;;0.39;100.00;95718.88;10608701;28;20180;-64
2021/12/05 20:45:54;;;;;;;13.07;7.73;;;;;;;0.43;100.00;95720.31;10608657;28;20221;-63
2021/12/05 20:50:55;;;;;;;14.57;7.97;;;;;;;0.42;100.00;95717.84;10607912;28;20173;-64
2021/12/05 20:55:56;;;;;;;13.53;7.63;;;;;;;0.33;100.00;95714.22;10614383;28;20412;-63
2021/12/05 21:00:59;;;;;;;14.83;7.10;;;;;;;0.27;100.00;95709.53;10614517;28;20176;-64
2021/12/05 21:06:05;;;;;;;21.90;7.47;;;;;;;0.15;100.00;95712.13;10613542;28;20212;-63
2021/12/05 21:11:14;;;;;;;17.87;7.67;;;;;;;0.31;100.00;95711.75;10611357;28;20387;-61
2021/12/05 21:16:15;;;;;;;10.57;7.10;;;;;;;0.42;100.00;95710.91;10613646;28;20235;-61
2021/12/05 21:21:20;;;;;;;12.37;7.57;;;;;;;0.63;100.00;95711.00;10612715;28;20435;-63
2021/12/05 21:26:21;;;;;;;13.77;6.60;;;;;;;0.71;100.00;95716.38;10613252;28;20214;-64
2021/12/05 21:31:22;;;;;;;13.37;7.10;;;;;;;0.88;100.00;95715.03;10613262;28;20183;-64
2021/12/05 21:36:22;;;;;;;12.23;6.20;;;;;;;0.57;100.00;95716.66;10612686;28;20234;-61
2021/12/05 21:41:23;;;;;;;13.67;6.07;;;;;;;0.63;100.00;95710.19;10612266;28;20168;-60
2021/12/05 21:46:25;;;;;;;13.83;6.17;;;;;;;0.64;100.00;95715.22;10612068;28;20639;-62
2021/12/05 21:51:26;;;;;;;13.67;6.20;;;;;;;0.70;100.00;95714.75;10612318;28;20186;-61
2021/12/05 21:56:27;;;;;;;11.83;6.00;;;;;;;0.41;100.00;95718.78;10612268;28;20165;-62
2021/12/05 22:01:27;;;;;;;13.10;5.73;;;;;;;0.39;100.00;95729.19;10611527;28;20167;-62
2021/12/05 22:06:28;;;;;;;12.53;6.33;;;;;;;0.48;100.00;95722.53;10611480;28;20230;-60
2021/12/05 22:11:28;;;;;;;15.23;6.30;;;;;;;0.24;100.00;95730.38;10611445;28;20185;-61
2021/12/05 22:16:28;;;;;;;17.17;8.57;;;;;;;0.02;100.00;95726.84;10610777;28;20245;-60
2021/12/05 22:21:34;;;;;;;14.23;8.33;;;;;;;-0.39;100.00;95730.75;10610636;28;20188;-62
2021/12/05 22:26:36;;;;;;;16.63;7.50;;;;;;;-0.57;100.00;95738.91;10610960;28;20265;-62
2021/12/05 22:31:39;;;;;;;18.83;7.33;;;;;;;-0.65;100.00;95745.53;10610555;28;20181;-61
2021/12/05 22:36:41;;;;;;;14.63;7.07;;;;;;;-0.56;100.00;95747.44;10610603;28;20166;-61
2021/12/05 22:41:43;;;;;;;15.47;7.50;;;;;;;-0.48;100.00;95752.81;10610283;28;20227;-60
2021/12/05 22:46:44;;;;;;;16.53;7.00;;;;;;;-0.07;100.00;95758.44;10609999;28;20277;-62
2021/12/05 22:51:45;;;;;;;16.70;7.43;;;;;;;0.14;100.00;95761.16;10609195;28;20366;-62
2021/12/05 22:56:46;;;;;;;12.50;7.47;;;;;;;0.35;100.00;95749.22;10610286;28;20177;-63
2021/12/05 23:01:46;;;;;;;14.93;8.03;;;;;;;0.31;100.00;95755.53;10609240;28;20196;-63
2021/12/05 23:06:47;;;;;;;13.17;6.83;;;;;;;0.46;100.00;95760.44;10609640;28;20218;-65
2021/12/05 23:11:47;;;;;;;11.73;7.00;;;;;;;0.67;100.00;95760.56;10609422;28;20172;-63
2021/12/05 23:16:48;;;;;;;21.00;8.87;;;;;;;0.55;100.00;95770.03;10608855;28;20406;-63
2021/12/05 23:21:52;;;;;;;17.73;8.17;;;;;;;0.55;100.00;95772.63;10608858;28;20225;-64
2021/12/05 23:26:53;;;;;;;17.87;9.03;;;;;;;0.48;100.00;95774.06;10609026;28;20210;-63
2021/12/05 23:31:56;;;;;;;14.87;8.80;;;;;;;0.65;100.00;95770.97;10608818;28;20182;-64
2021/12/05 23:36:56;;;;;;;15.03;9.63;;;;;;;0.50;100.00;95772.16;10608665;28;20184;-66
2021/12/05 23:41:57;;;;;;;23.37;10.67;;;;;;;0.47;100.00;95778.38;10609023;28;20168;-63
2021/12/05 23:46:58;;;;;;;24.63;11.20;;;;;;;0.41;100.00;95778.03;10608178;28;20205;-64
2021/12/05 23:51:58;;;;;;;18.80;10.57;;;;;;;0.31;100.00;95778.72;10607184;28;20287;-67
2021/12/05 23:56:58;;;;;;;22.10;10.73;;;;;;;0.36;100.00;95793.84;10606310;28;20164;-64
